Time;durP1;ratioP1;P1;durP2;ratioP2;P2;SDS_P1;SDS_P2;PMS_P1;PMS_P2;Temp;Humidity;BMP_temperature;BMP_pressure;BME280_temperature;BME280_humidity;BME280_pressure;Samples;Min_cycle;Max_cycle;Signal;HPM_P1;HPM_P2
2023/11/06 00:00:23;;;;;;;6.05;1.83;;;9.80;97.60;;;;;;5021227;28;20061;-81
2023/11/06 00:02:49;;;;;;;5.50;1.50;;;9.70;97.50;;;;;;5018940;28;20470;-79
2023/11/06 00:05:15;;;;;;;7.15;1.77;;;9.80;97.50;;;;;;5023225;28;20127;-80
2023/11/06 00:07:41;;;;;;;4.93;1.42;;;9.80;97.40;;;;;;5019793;28;20037;-80
2023/11/06 00:10:09;;;;;;;3.80;1.63;;;9.70;97.30;;;;;;5020353;28;20394;-80
2023/11/06 00:12:38;;;;;;;6.13;1.67;;;9.80;97.20;;;;;;5018439;28;20041;-79
2023/11/06 00:15:05;;;;;;;4.40;1.73;;;9.80;97.20;;;;;;5023428;28;20034;-80
2023/11/06 00:17:30;;;;;;;3.22;1.35;;;9.80;97.10;;;;;;5024595;28;20493;-79
2023/11/06 00:19:56;;;;;;;4.63;1.95;;;9.70;97.00;;;;;;5022797;28;20042;-80
2023/11/06 00:22:22;;;;;;;5.25;1.58;;;9.70;97.00;;;;;;5022638;28;20056;-80
2023/11/06 00:24:48;;;;;;;4.95;1.73;;;9.60;97.00;;;;;;5013667;28;20462;-80
2023/11/06 00:27:13;;;;;;;5.22;1.67;;;9.60;97.00;;;;;;5036735;28;20037;-80
2023/11/06 00:29:42;;;;;;;5.43;1.63;;;9.70;96.90;;;;;;5020069;28;20017;-80
2023/11/06 00:32:07;;;;;;;3.75;1.42;;;9.60;96.90;;;;;;5017343;28;20534;-79
2023/11/06 00:34:33;;;;;;;6.63;2.00;;;9.60;96.90;;;;;;5022817;28;20041;-80
2023/11/06 00:36:59;;;;;;;4.30;1.77;;;9.60;96.90;;;;;;5018549;28;20065;-80
2023/11/06 00:39:25;;;;;;;6.03;1.70;;;9.60;96.90;;;;;;5021242;28;21298;-81
2023/11/06 00:41:51;;;;;;;4.60;1.70;;;9.60;96.90;;;;;;5024334;28;20041;-80
2023/11/06 00:44:17;;;;;;;4.95;1.92;;;9.60;96.90;;;;;;5021441;28;20100;-80
2023/11/06 00:46:43;;;;;;;5.20;1.70;;;9.60;97.00;;;;;;5017399;28;20053;-80
2023/11/06 00:49:10;;;;;;;6.32;1.52;;;9.60;97.00;;;;;;5011630;28;20026;-79
2023/11/06 00:51:36;;;;;;;7.45;1.88;;;9.70;97.10;;;;;;5013357;28;20073;-81
2023/11/06 00:54:02;;;;;;;5.35;1.63;;;9.70;97.00;;;;;;5021302;28;20064;-79
2023/11/06 00:56:28;;;;;;;9.70;2.20;;;9.70;96.90;;;;;;5020349;28;20053;-77
2023/11/06 00:58:54;;;;;;;7.00;1.70;;;9.70;97.00;;;;;;5019531;28;20026;-78
2023/11/06 01:01:20;;;;;;;7.13;2.08;;;9.80;97.10;;;;;;5020231;28;20091;-79
2023/11/06 01:03:46;;;;;;;4.93;1.95;;;9.80;97.00;;;;;;5022570;28;20041;-78
2023/11/06 01:06:12;;;;;;;6.00;1.92;;;9.80;97.10;;;;;;5019851;28;20045;-78
2023/11/06 01:08:38;;;;;;;8.23;2.25;;;9.80;97.00;;;;;;5018088;28;20033;-79
2023/11/06 01:11:05;;;;;;;9.02;2.47;;;9.80;97.00;;;;;;5019591;28;20125;-78
2023/11/06 01:13:31;;;;;;;5.55;1.55;;;9.80;96.80;;;;;;5020098;28;20034;-78
2023/11/06 01:15:57;;;;;;;6.35;1.50;;;9.80;96.70;;;;;;5024429;28;20030;-78
2023/11/06 01:18:23;;;;;;;7.38;1.70;;;9.80;96.70;;;;;;5015629;28;20041;-79
2023/11/06 01:20:48;;;;;;;4.65;1.58;;;9.80;96.60;;;;;;5018765;28;20033;-79
2023/11/06 01:23:14;;;;;;;6.47;2.10;;;9.80;96.40;;;;;;5023473;28;20048;-79
2023/11/06 01:25:42;;;;;;;6.53;1.42;;;9.80;96.30;;;;;;5026637;28;20101;-80
2023/11/06 01:28:09;;;;;;;6.68;1.67;;;9.70;96.40;;;;;;5046305;28;20060;-80
2023/11/06 01:30:35;;;;;;;7.82;1.80;;;9.70;96.40;;;;;;5046862;28;20097;-80
2023/11/06 01:33:00;;;;;;;9.10;2.30;;;9.70;96.50;;;;;;5029891;28;20363;-78
2023/11/06 01:35:30;;;;;;;4.55;1.60;;;9.70;96.50;;;;;;5022891;28;20470;-80
2023/11/06 01:37:57;;;;;;;7.75;1.75;;;9.70;96.50;;;;;;5016317;28;20544;-79
2023/11/06 01:40:23;;;;;;;9.43;2.00;;;9.60;96.50;;;;;;5022246;28;20613;-80
2023/11/06 01:42:48;;;;;;;7.10;1.98;;;9.70;96.60;;;;;;5018386;28;20041;-79
2023/11/06 01:45:14;;;;;;;7.22;2.38;;;9.60;96.70;;;;;;5021969;28;20044;-81
2023/11/06 01:47:40;;;;;;;6.10;2.40;;;9.60;96.80;;;;;;5020789;28;20095;-80
2023/11/06 01:50:07;;;;;;;8.95;2.20;;;9.60;96.90;;;;;;5022384;28;20033;-80
2023/11/06 01:52:33;;;;;;;7.18;2.28;;;9.70;97.10;;;;;;5022309;28;20540;-80
2023/11/06 01:54:59;;;;;;;7.20;2.10;;;9.70;97.30;;;;;;5020854;28;20033;-79
2023/11/06 01:57:27;;;;;;;9.27;2.20;;;9.70;97.40;;;;;;5034437;28;20498;-80
2023/11/06 01:59:54;;;;;;;8.50;2.30;;;9.80;97.40;;;;;;5020579;28;20088;-78
2023/11/06 02:02:22;;;;;;;6.90;2.20;;;9.80;97.30;;;;;;5016478;28;20038;-80
2023/11/06 02:04:49;;;;;;;7.30;1.95;;;9.80;97.30;;;;;;5015759;28;20029;-79
2023/11/06 02:07:18;;;;;;;9.75;2.00;;;9.80;97.20;;;;;;5018159;28;20034;-79
2023/11/06 02:09:44;;;;;;;8.13;2.58;;;9.80;97.10;;;;;;5020350;28;20116;-79
2023/11/06 02:12:10;;;;;;;12.32;2.28;;;9.80;97.10;;;;;;5014936;28;20121;-81
2023/11/06 02:14:55;;;;;;;7.45;1.98;;;9.80;97.10;;;;;;5019420;28;20587;-79
2023/11/06 02:17:21;;;;;;;13.85;2.78;;;9.80;97.10;;;;;;5018635;28;20045;-79
2023/11/06 02:19:48;;;;;;;9.70;2.38;;;9.80;97.00;;;;;;5012915;28;20042;-78
2023/11/06 02:22:22;;;;;;;9.60;2.28;;;9.80;97.00;;;;;;5017866;28;20037;-80
2023/11/06 02:24:50;;;;;;;7.80;2.13;;;9.80;97.00;;;;;;5015429;28;20029;-80
2023/11/06 02:27:19;;;;;;;6.47;2.08;;;9.80;97.00;;;;;;5014463;28;20161;-80
2023/11/06 02:29:46;;;;;;;8.60;2.13;;;9.80;97.00;;;;;;5015734;28;20048;-81
2023/11/06 02:32:11;;;;;;;9.10;2.17;;;9.80;97.00;;;;;;5018640;28;20038;-81
2023/11/06 02:34:38;;;;;;;7.88;2.10;;;9.70;97.00;;;;;;5023530;28;20029;-79
2023/11/06 02:37:04;;;;;;;8.27;1.95;;;9.70;97.00;;;;;;5013855;28;20048;-79
2023/11/06 02:39:34;;;;;;;11.05;1.80;;;9.70;97.00;;;;;;5011444;28;20055;-80
2023/11/06 02:42:01;;;;;;;8.27;2.25;;;9.70;97.00;;;;;;5021057;28;20473;-80
2023/11/06 02:44:27;;;;;;;9.52;2.00;;;9.70;97.00;;;;;;5014327;28;20076;-80
2023/11/06 02:46:53;;;;;;;8.27;2.00;;;9.80;97.10;;;;;;5013273;28;20446;-79
2023/11/06 02:49:18;;;;;;;11.63;2.47;;;9.70;97.10;;;;;;5014547;28;20034;-79
2023/11/06 02:51:44;;;;;;;6.28;2.08;;;9.70;97.10;;;;;;5029935;28;20505;-79
2023/11/06 02:54:10;;;;;;;11.18;2.40;;;9.70;97.20;;;;;;5024341;28;20041;-78
2023/11/06 02:56:35;;;;;;;10.80;2.08;;;9.70;97.20;;;;;;5017072;28;20570;-80
2023/11/06 02:59:05;;;;;;;6.53;1.90;;;9.70;97.20;;;;;;5034225;28;20172;-79
2023/11/06 03:01:31;;;;;;;10.18;2.13;;;9.70;97.30;;;;;;5016732;28;20037;-80
2023/11/06 03:04:00;;;;;;;9.18;2.40;;;9.70;97.30;;;;;;5012870;28;20128;-80
2023/11/06 03:06:29;;;;;;;8.30;2.10;;;9.80;97.30;;;;;;5021180;28;20045;-79
2023/11/06 03:08:55;;;;;;;9.55;2.08;;;9.70;97.30;;;;;;5021039;28;20064;-80
2023/11/06 03:11:22;;;;;;;8.98;3.05;;;9.70;97.30;;;;;;5024142;28;20121;-79
2023/11/06 03:13:48;;;;;;;7.80;2.35;;;9.80;97.30;;;;;;5024664;28;20036;-79
2023/11/06 03:16:17;;;;;;;14.13;3.00;;;9.80;97.40;;;;;;5023220;28;20042;-80
2023/11/06 03:18:43;;;;;;;9.25;2.40;;;9.80;97.40;;;;;;5016461;28;20030;-80
2023/11/06 03:21:10;;;;;;;11.50;2.70;;;9.70;97.40;;;;;;5017625;28;20085;-80
2023/11/06 03:23:36;;;;;;;8.60;2.53;;;9.70;97.50;;;;;;5017445;28;20067;-79
2023/11/06 03:26:03;;;;;;;9.93;2.85;;;9.80;97.50;;;;;;5023504;28;20092;-79
2023/11/06 03:28:29;;;;;;;13.93;3.22;;;9.70;97.50;;;;;;5019793;28;20132;-79
2023/11/06 03:30:54;;;;;;;14.27;3.80;;;9.80;97.60;;;;;;5016356;28;20129;-79
2023/11/06 03:33:20;;;;;;;12.35;3.00;;;9.80;97.60;;;;;;5022693;28;20540;-80
2023/11/06 03:35:45;;;;;;;16.13;4.13;;;9.80;97.70;;;;;;5036322;28;20045;-79
2023/11/06 03:38:11;;;;;;;14.52;3.72;;;9.80;97.70;;;;;;5022518;28;20047;-80
2023/11/06 03:40:37;;;;;;;20.88;4.40;;;9.80;97.80;;;;;;5020289;28;20495;-80
2023/11/06 03:43:02;;;;;;;16.52;4.20;;;9.80;97.80;;;;;;5020051;28;20026;-80
2023/11/06 03:45:31;;;;;;;18.75;4.47;;;9.90;97.90;;;;;;5025155;28;20069;-80
2023/11/06 03:47:57;;;;;;;19.00;4.20;;;9.80;97.90;;;;;;5010945;28;20335;-80
2023/11/06 03:50:22;;;;;;;12.50;3.60;;;9.80;97.90;;;;;;5025308;28;20041;-79
2023/11/06 03:52:49;;;;;;;19.27;5.55;;;9.90;98.00;;;;;;5019633;28;20120;-79
2023/11/06 03:55:14;;;;;;;22.42;5.20;;;9.80;98.00;;;;;;5013962;28;20049;-78
2023/11/06 03:57:40;;;;;;;19.85;4.30;;;9.90;97.90;;;;;;5021238;28;20120;-80
2023/11/06 04:00:10;;;;;;;19.98;4.18;;;9.80;97.90;;;;;;5020149;28;20095;-81
2023/11/06 04:02:37;;;;;;;22.63;4.60;;;9.80;98.00;;;;;;5020937;28;20029;-80
2023/11/06 04:05:03;;;;;;;23.27;4.68;;;9.80;98.00;;;;;;5022222;28;20098;-80
2023/11/06 04:07:28;;;;;;;17.60;4.30;;;9.80;98.00;;;;;;5021362;28;20026;-80
2023/11/06 04:09:56;;;;;;;21.88;4.65;;;9.80;98.00;;;;;;5020265;28;20048;-79
2023/11/06 04:12:22;;;;;;;20.15;4.15;;;9.90;97.90;;;;;;5022902;28;20124;-79
2023/11/06 04:14:49;;;;;;;19.55;4.10;;;9.80;97.70;;;;;;5023054;28;20060;-80
2023/11/06 04:17:15;;;;;;;19.45;4.25;;;9.80;97.60;;;;;;5016453;28;20063;-79
2023/11/06 04:19:41;;;;;;;14.13;3.83;;;9.80;97.50;;;;;;5015013;28;20034;-81
2023/11/06 04:22:07;;;;;;;18.70;4.00;;;9.70;97.50;;;;;;5015107;28;20060;-79
2023/11/06 04:24:33;;;;;;;20.73;4.85;;;9.70;97.50;;;;;;5017732;28;20135;-80
2023/11/06 04:26:59;;;;;;;17.55;3.80;;;9.70;97.40;;;;;;5019930;28;20042;-79
2023/11/06 04:29:25;;;;;;;20.73;3.38;;;9.70;97.30;;;;;;5018939;28;20033;-79
2023/11/06 04:31:50;;;;;;;17.35;3.63;;;9.60;97.20;;;;;;5019348;28;20056;-79
2023/11/06 04:34:16;;;;;;;19.60;3.55;;;9.60;97.00;;;;;;5023293;28;20033;-81
2023/11/06 04:36:41;;;;;;;22.20;3.95;;;9.70;96.90;;;;;;5012972;28;20625;-82
2023/11/06 04:39:09;;;;;;;16.92;4.07;;;9.70;96.80;;;;;;5020654;28;20086;-81
2023/11/06 04:41:39;;;;;;;12.23;3.40;;;9.70;96.80;;;;;;5018686;28;20099;-80
2023/11/06 04:44:05;;;;;;;15.35;3.08;;;9.60;96.80;;;;;;5018455;28;20482;-78
2023/11/06 04:46:31;;;;;;;18.77;3.55;;;9.70;96.80;;;;;;5019650;28;20382;-79
2023/11/06 04:48:57;;;;;;;16.60;3.45;;;9.60;96.70;;;;;;5021956;28;20503;-79
2023/11/06 04:51:22;;;;;;;12.75;3.55;;;9.60;96.60;;;;;;5014083;28;20042;-78
2023/11/06 04:53:48;;;;;;;14.70;3.45;;;9.60;96.50;;;;;;5021260;28;20026;-80
2023/11/06 04:56:14;;;;;;;15.18;3.53;;;9.60;96.60;;;;;;5018588;28;20041;-79
2023/11/06 04:58:39;;;;;;;15.02;3.22;;;9.60;96.40;;;;;;5016499;28;20033;-79
2023/11/06 05:01:06;;;;;;;15.85;2.85;;;9.60;96.40;;;;;;5023243;28;20033;-79
2023/11/06 05:03:33;;;;;;;14.68;3.67;;;9.60;96.40;;;;;;5016640;28;20395;-80
2023/11/06 05:05:59;;;;;;;14.85;2.65;;;9.60;96.40;;;;;;5025060;28;20028;-79
2023/11/06 05:08:28;;;;;;;13.05;2.75;;;9.60;96.50;;;;;;5021580;28;20065;-80
2023/11/06 05:10:55;;;;;;;12.57;2.63;;;9.60;96.40;;;;;;5022989;28;20050;-80
2023/11/06 05:13:21;;;;;;;9.10;2.70;;;9.50;96.40;;;;;;5016972;28;20592;-78
2023/11/06 05:15:47;;;;;;;14.57;2.85;;;9.60;96.50;;;;;;5020716;28;20112;-80
2023/11/06 05:18:13;;;;;;;13.60;2.97;;;9.60;96.50;;;;;;5019256;28;20285;-81
2023/11/06 05:20:42;;;;;;;12.90;2.72;;;9.50;96.50;;;;;;5017655;28;20041;-81
2023/11/06 05:23:08;;;;;;;11.73;2.60;;;9.50;96.50;;;;;;5021719;28;20068;-81
2023/11/06 05:25:34;;;;;;;14.77;3.28;;;9.50;96.60;;;;;;5038808;28;20308;-78
2023/11/06 05:28:00;;;;;;;9.35;3.17;;;9.50;96.70;;;;;;5021444;28;20075;-81
2023/11/06 05:30:26;;;;;;;14.90;3.60;;;9.50;96.70;;;;;;5019474;28;20474;-80
2023/11/06 05:32:53;;;;;;;17.88;4.28;;;9.50;96.70;;;;;;5023256;28;20037;-81
2023/11/06 05:35:18;;;;;;;20.40;4.18;;;9.50;96.80;;;;;;5019523;28;20077;-80
2023/11/06 05:37:46;;;;;;;18.05;3.70;;;9.50;96.90;;;;;;5013853;28;20623;-80
2023/11/06 05:40:12;;;;;;;17.77;4.80;;;9.40;97.00;;;;;;5015443;28;20045;-80
2023/11/06 05:42:38;;;;;;;21.92;4.40;;;9.40;97.00;;;;;;5022309;28;20509;-81
2023/11/06 05:45:06;;;;;;;21.55;4.40;;;9.40;97.10;;;;;;5019135;28;20056;-80
2023/11/06 05:47:31;;;;;;;21.48;4.45;;;9.40;97.10;;;;;;5019794;28;20026;-80
2023/11/06 05:49:57;;;;;;;18.23;4.28;;;9.40;97.10;;;;;;5014569;28;20459;-80
2023/11/06 05:52:23;;;;;;;21.73;3.88;;;9.40;97.00;;;;;;5020657;28;20060;-80
2023/11/06 05:54:49;;;;;;;22.35;3.90;;;9.40;97.00;;;;;;5021964;28;20061;-80
2023/11/06 05:57:15;;;;;;;15.98;4.20;;;9.40;97.10;;;;;;5011844;28;20546;-79
2023/11/06 05:59:40;;;;;;;20.75;4.53;;;9.30;97.10;;;;;;5016506;28;20033;-82
2023/11/06 06:02:08;;;;;;;12.40;4.05;;;9.30;97.10;;;;;;5014067;28;20038;-78
2023/11/06 06:04:34;;;;;;;16.45;3.40;;;9.30;97.00;;;;;;5018283;28;20034;-77
2023/11/06 06:07:00;;;;;;;17.17;3.60;;;9.20;96.90;;;;;;5016553;28;20436;-79
2023/11/06 06:09:26;;;;;;;13.15;3.75;;;9.20;96.80;;;;;;5031572;28;20047;-80
2023/11/06 06:11:51;;;;;;;18.63;4.28;;;9.10;96.80;;;;;;5041319;28;20106;-80
2023/11/06 06:14:17;;;;;;;16.38;3.97;;;9.00;96.80;;;;;;5039433;28;20093;-82
2023/11/06 06:16:44;;;;;;;21.48;4.63;;;9.00;96.80;;;;;;5026857;28;20041;-78
2023/11/06 06:19:10;;;;;;;19.38;4.18;;;8.90;96.80;;;;;;5022964;28;20363;-77
2023/11/06 06:21:36;;;;;;;20.45;3.78;;;8.90;96.80;;;;;;5018502;28;20037;-78
2023/11/06 06:24:03;;;;;;;14.15;3.95;;;8.90;96.90;;;;;;5013064;28;20053;-79
2023/11/06 06:26:29;;;;;;;16.27;3.50;;;8.90;96.90;;;;;;5015341;28;20030;-79
2023/11/06 06:28:54;;;;;;;25.65;4.20;;;8.90;97.00;;;;;;5021754;28;20045;-78
2023/11/06 06:31:21;;;;;;;16.05;4.05;;;8.90;97.00;;;;;;5019730;28;20494;-80
2023/11/06 06:33:47;;;;;;;14.40;4.03;;;8.90;96.90;;;;;;5022001;28;20029;-73
2023/11/06 06:36:13;;;;;;;19.92;4.60;;;9.00;96.80;;;;;;5018794;28;20096;-74
2023/11/06 06:38:39;;;;;;;23.23;4.45;;;8.90;96.80;;;;;;5018726;28;20044;-74
2023/11/06 06:41:04;;;;;;;17.50;3.85;;;8.90;96.80;;;;;;5019498;28;20046;-73
2023/11/06 06:43:31;;;;;;;23.98;4.35;;;9.00;96.80;;;;;;5017942;28;20053;-74
2023/11/06 06:45:56;;;;;;;19.27;3.97;;;9.00;96.70;;;;;;5016590;28;20485;-73
2023/11/06 06:48:22;;;;;;;19.27;4.78;;;9.00;96.60;;;;;;5018934;28;20065;-73
2023/11/06 06:50:48;;;;;;;18.40;3.33;;;9.10;96.50;;;;;;5038937;28;20034;-74
2023/11/06 06:53:13;;;;;;;16.17;3.72;;;9.10;96.40;;;;;;5023091;28;20823;-73
2023/11/06 06:55:39;;;;;;;16.42;4.00;;;9.20;96.30;;;;;;5022554;28;20040;-74
2023/11/06 06:58:05;;;;;;;14.02;3.75;;;9.20;96.10;;;;;;5017579;28;20124;-74
2023/11/06 07:00:33;;;;;;;17.45;3.80;;;9.30;96.00;;;;;;5019696;28;20041;-73
2023/11/06 07:03:00;;;;;;;21.58;4.53;;;9.30;95.90;;;;;;5017578;28;20080;-74
2023/11/06 07:05:26;;;;;;;23.65;3.50;;;9.30;95.60;;;;;;5019700;28;20032;-74
2023/11/06 07:07:52;;;;;;;21.95;4.22;;;9.30;95.60;;;;;;5015591;28;20021;-73
2023/11/06 07:10:18;;;;;;;19.50;4.80;;;9.30;95.50;;;;;;5019695;28;20036;-74
2023/11/06 07:12:43;;;;;;;14.63;3.88;;;9.20;95.40;;;;;;5018603;28;20044;-74
2023/11/06 07:15:10;;;;;;;14.20;3.45;;;9.20;95.40;;;;;;5014726;28;20547;-73
2023/11/06 07:17:36;;;;;;;16.23;4.00;;;9.20;95.40;;;;;;5018305;28;20029;-75
2023/11/06 07:20:03;;;;;;;15.88;5.22;;;9.20;95.40;;;;;;5039633;28;20176;-75
2023/11/06 07:22:29;;;;;;;18.50;4.20;;;9.20;95.50;;;;;;5015611;28;20467;-72
2023/11/06 07:24:54;;;;;;;19.13;4.30;;;9.30;95.50;;;;;;5019420;28;20035;-75
2023/11/06 07:27:21;;;;;;;13.88;3.88;;;9.40;95.40;;;;;;5022569;28;20056;-73
2023/11/06 07:29:47;;;;;;;17.77;4.05;;;9.50;95.20;;;;;;5023373;28;20033;-73
2023/11/06 07:32:13;;;;;;;23.63;4.07;;;9.60;95.20;;;;;;5018175;28;20349;-73
2023/11/06 07:34:39;;;;;;;17.05;3.35;;;9.80;94.90;;;;;;5022202;28;20496;-72
2023/11/06 07:37:05;;;;;;;23.63;4.45;;;9.70;94.50;;;;;;5014587;28;20038;-74
2023/11/06 07:39:31;;;;;;;20.58;3.33;;;9.80;94.30;;;;;;5014964;28;20034;-74
2023/11/06 07:41:57;;;;;;;14.98;4.00;;;9.80;94.10;;;;;;5017285;28;20052;-74
2023/11/06 07:44:23;;;;;;;16.65;3.35;;;9.80;94.00;;;;;;5025011;28;20503;-75
2023/11/06 07:46:49;;;;;;;16.65;3.88;;;9.80;94.20;;;;;;5022396;28;20339;-75
2023/11/06 07:49:15;;;;;;;15.15;4.05;;;9.80;94.30;;;;;;5021719;28;20026;-74
2023/11/06 07:51:40;;;;;;;14.35;3.58;;;9.80;94.20;;;;;;5021386;28;20044;-74
2023/11/06 07:54:07;;;;;;;17.23;3.63;;;9.90;94.00;;;;;;5023134;28;20018;-74
2023/11/06 07:56:32;;;;;;;14.15;3.28;;;9.90;94.00;;;;;;5021180;28;20033;-75
2023/11/06 07:59:02;;;;;;;15.82;3.80;;;9.80;93.80;;;;;;5023645;28;20041;-74
2023/11/06 08:01:28;;;;;;;18.35;4.20;;;9.80;93.80;;;;;;5013833;28;20041;-73
2023/11/06 08:03:53;;;;;;;15.20;3.53;;;9.80;94.00;;;;;;5021014;28;20446;-74
2023/11/06 08:06:19;;;;;;;16.60;3.72;;;9.90;93.90;;;;;;5016722;28;20529;-73
2023/11/06 08:08:45;;;;;;;13.07;3.95;;;10.00;93.90;;;;;;5016441;28;20529;-73
2023/11/06 08:11:10;;;;;;;17.77;4.30;;;10.10;93.70;;;;;;5019400;28;20071;-73
2023/11/06 08:13:36;;;;;;;13.95;3.17;;;10.20;93.50;;;;;;5022157;28;20266;-73
2023/11/06 08:16:05;;;;;;;18.17;4.15;;;10.20;93.30;;;;;;5020932;28;20541;-74
2023/11/06 08:18:30;;;;;;;16.70;3.70;;;10.30;93.20;;;;;;5016286;28;20508;-74
2023/11/06 08:20:56;;;;;;;16.00;3.67;;;10.40;93.20;;;;;;5022090;28;20482;-74
2023/11/06 08:23:22;;;;;;;17.98;3.55;;;10.50;92.70;;;;;;5012714;28;20497;-73
2023/11/06 08:25:47;;;;;;;13.18;3.65;;;10.40;92.60;;;;;;5021920;28;20129;-73
2023/11/06 08:28:13;;;;;;;14.60;3.80;;;10.50;92.70;;;;;;5021606;28;20151;-72
2023/11/06 08:30:38;;;;;;;14.60;3.55;;;10.60;92.50;;;;;;5018457;28;20072;-74
2023/11/06 08:33:04;;;;;;;13.63;3.47;;;10.70;92.30;;;;;;5034036;28;20479;-75
2023/11/06 08:35:30;;;;;;;14.48;4.07;;;10.60;92.10;;;;;;5016289;28;20044;-74
2023/11/06 08:37:55;;;;;;;18.30;3.70;;;10.70;92.30;;;;;;5020783;28;20029;-74
2023/11/06 08:40:22;;;;;;;18.20;4.18;;;10.70;92.00;;;;;;5019490;28;20052;-74
2023/11/06 08:42:48;;;;;;;12.18;3.25;;;10.90;92.00;;;;;;5019732;28;20033;-74
2023/11/06 08:45:14;;;;;;;19.30;4.22;;;10.90;92.00;;;;;;5024934;28;20044;-75
2023/11/06 08:47:39;;;;;;;17.90;3.55;;;11.10;91.70;;;;;;5021150;28;20041;-76
2023/11/06 08:50:06;;;;;;;17.55;4.38;;;11.20;91.40;;;;;;5019780;28;20037;-75
2023/11/06 08:52:32;;;;;;;16.63;4.50;;;11.30;90.80;;;;;;5017689;28;20029;-74
2023/11/06 08:54:58;;;;;;;18.05;4.15;;;11.40;90.60;;;;;;5021006;28;20045;-75
2023/11/06 08:57:23;;;;;;;16.90;3.63;;;11.50;90.30;;;;;;5018750;28;20034;-73
2023/11/06 08:59:50;;;;;;;17.42;3.63;;;11.70;90.20;;;;;;5018687;28;20057;-75
2023/11/06 09:02:15;;;;;;;15.27;3.97;;;11.70;89.90;;;;;;5016061;28;20061;-75
2023/11/06 09:04:41;;;;;;;16.48;4.00;;;11.60;89.60;;;;;;5021996;28;20490;-76
2023/11/06 09:07:10;;;;;;;17.83;3.40;;;11.40;89.60;;;;;;5016998;28;20063;-75
2023/11/06 09:09:36;;;;;;;17.30;3.67;;;11.20;89.90;;;;;;5012883;28;20240;-74
2023/11/06 09:12:01;;;;;;;11.73;3.70;;;11.10;90.30;;;;;;5015988;28;20079;-75
2023/11/06 09:14:27;;;;;;;18.58;4.78;;;11.10;90.60;;;;;;5019467;28;20100;-74
2023/11/06 09:16:52;;;;;;;18.15;3.53;;;11.10;90.60;;;;;;5018299;28;20076;-74
2023/11/06 09:19:18;;;;;;;15.38;4.07;;;11.10;90.80;;;;;;5022465;28;20029;-74
2023/11/06 09:21:43;;;;;;;12.68;3.67;;;11.10;90.70;;;;;;5019915;28;20037;-74
2023/11/06 09:24:09;;;;;;;12.27;3.33;;;11.20;90.80;;;;;;5019269;28;20037;-74
2023/11/06 09:26:35;;;;;;;15.73;3.90;;;11.20;90.60;;;;;;5018519;28;20224;-75
2023/11/06 09:29:01;;;;;;;14.05;3.50;;;11.20;90.90;;;;;;5017923;28;20076;-74
2023/11/06 09:31:27;;;;;;;17.23;3.55;;;11.30;90.60;;;;;;5010371;28;20030;-75
2023/11/06 09:33:54;;;;;;;16.02;3.70;;;11.30;90.50;;;;;;5018515;28;20079;-74
2023/11/06 09:36:20;;;;;;;14.50;3.72;;;11.30;90.60;;;;;;5020912;28;20049;-74
2023/11/06 09:38:47;;;;;;;10.82;2.90;;;11.30;90.10;;;;;;5012226;28;20034;-75
2023/11/06 09:41:13;;;;;;;13.35;3.67;;;11.30;90.00;;;;;;5021599;28;20500;-74
2023/11/06 09:43:42;;;;;;;17.45;3.78;;;11.20;90.20;;;;;;5022373;28;20041;-74
2023/11/06 09:46:09;;;;;;;15.20;4.30;;;11.20;89.90;;;;;;5023110;28;20162;-75
2023/11/06 09:48:36;;;;;;;14.52;3.55;;;11.20;90.00;;;;;;5017241;28;20036;-76
2023/11/06 09:51:23;;;;;;;17.40;3.53;;;11.30;90.30;;;;;;5022326;28;20117;-74
2023/11/06 09:53:51;;;;;;;14.43;3.15;;;11.40;90.00;;;;;;5019486;28;20119;-74
2023/11/06 09:56:19;;;;;;;14.02;3.10;;;11.30;89.60;;;;;;5018178;28;20048;-76
2023/11/06 09:58:45;;;;;;;18.38;3.55;;;11.30;89.60;;;;;;5015524;28;20136;-75
2023/11/06 10:01:14;;;;;;;14.10;3.50;;;11.40;89.70;;;;;;5021095;28;20717;-73
2023/11/06 10:03:40;;;;;;;11.60;3.42;;;11.40;89.80;;;;;;5014197;28;20425;-75
2023/11/06 10:06:07;;;;;;;12.60;3.50;;;11.40;89.30;;;;;;5015248;28;20635;-74
2023/11/06 10:08:35;;;;;;;13.40;3.53;;;11.30;89.50;;;;;;5018625;28;20129;-73
2023/11/06 10:11:03;;;;;;;13.75;3.97;;;11.20;89.90;;;;;;5017461;28;20033;-73
2023/11/06 10:13:30;;;;;;;15.30;4.25;;;11.20;90.40;;;;;;5016221;28;20038;-74
2023/11/06 10:15:56;;;;;;;15.80;3.83;;;11.20;90.70;;;;;;5026483;28;20041;-74
2023/11/06 10:18:26;;;;;;;12.15;3.25;;;11.10;90.90;;;;;;5021995;28;20049;-74
2023/11/06 10:20:54;;;;;;;13.35;3.53;;;11.10;91.10;;;;;;5023085;28;20049;-73
2023/11/06 10:23:35;;;;;;;14.88;3.67;;;11.10;90.90;;;;;;5018158;28;20069;-74
2023/11/06 10:26:15;;;;;;;13.32;3.30;;;11.10;91.20;;;;;;5020807;28;20103;-75
2023/11/06 10:28:41;;;;;;;13.77;3.35;;;11.10;91.40;;;;;;5023053;28;20708;-74
2023/11/06 10:31:07;;;;;;;13.32;3.80;;;11.10;91.50;;;;;;5022964;28;20067;-74
2023/11/06 10:33:33;;;;;;;15.27;3.10;;;11.10;91.80;;;;;;5019587;28;20038;-77
2023/11/06 10:35:59;;;;;;;15.10;3.85;;;11.10;91.90;;;;;;5023297;28;20041;-76
2023/11/06 10:38:36;;;;;;;17.45;3.60;;;11.10;92.10;;;;;;5023778;28;20041;-75
2023/11/06 10:41:24;;;;;;;12.25;3.50;;;11.10;92.20;;;;;;5024571;28;20052;-74
2023/11/06 10:43:56;;;;;;;13.75;4.28;;;11.00;92.50;;;;;;5025967;28;20391;-74
2023/11/06 10:46:25;;;;;;;16.23;3.67;;;11.00;92.80;;;;;;5023366;28;20045;-74
2023/11/06 10:49:06;;;;;;;11.30;3.70;;;11.00;92.80;;;;;;5028264;28;20068;-75
2023/11/06 10:51:33;;;;;;;13.43;3.75;;;11.00;92.90;;;;;;5040974;28;20026;-74
2023/11/06 10:54:01;;;;;;;13.43;3.40;;;11.10;93.00;;;;;;5038210;28;20025;-75
2023/11/06 10:56:30;;;;;;;14.50;3.63;;;11.00;93.00;;;;;;5031130;28;20035;-74
2023/11/06 10:58:59;;;;;;;11.63;3.40;;;11.00;93.10;;;;;;5024043;28;20033;-74
2023/11/06 11:01:28;;;;;;;13.15;3.20;;;11.00;93.30;;;;;;5027075;28;20096;-74
2023/11/06 11:03:54;;;;;;;15.90;4.03;;;10.90;93.30;;;;;;5024952;28;20044;-74
2023/11/06 11:06:20;;;;;;;16.92;4.10;;;10.90;93.40;;;;;;5024255;28;20046;-76
2023/11/06 11:08:47;;;;;;;13.27;4.82;;;11.00;93.50;;;;;;5025247;28;20026;-75
2023/11/06 11:11:13;;;;;;;11.93;4.22;;;11.00;93.40;;;;;;5023324;28;20375;-76
2023/11/06 11:13:42;;;;;;;22.48;12.77;;;10.90;93.50;;;;;;5021319;28;20120;-75
2023/11/06 11:16:44;;;;;;;22.77;6.90;;;11.00;93.80;;;;;;5024120;28;20091;-75
2023/11/06 11:19:27;;;;;;;18.33;5.65;;;10.90;93.70;;;;;;5022809;28;20030;-74
2023/11/06 11:22:09;;;;;;;16.05;6.45;;;11.00;94.00;;;;;;5021451;28;20636;-74
2023/11/06 11:24:44;;;;;;;17.00;4.43;;;10.90;94.20;;;;;;5023151;28;20028;-74
2023/11/06 11:27:25;;;;;;;12.75;4.15;;;10.90;94.40;;;;;;5017963;28;20069;-74
2023/11/06 11:29:58;;;;;;;13.50;4.38;;;11.00;94.50;;;;;;5018457;28;20042;-74
2023/11/06 11:32:29;;;;;;;16.60;5.18;;;11.10;94.60;;;;;;5017997;28;20029;-73
2023/11/06 11:34:57;;;;;;;14.77;3.67;;;11.10;94.60;;;;;;5017153;28;20049;-74
2023/11/06 11:37:31;;;;;;;12.98;3.63;;;11.10;94.60;;;;;;5012413;28;20034;-73
2023/11/06 11:39:59;;;;;;;17.00;4.35;;;11.00;94.70;;;;;;5013579;28;20033;-74
2023/11/06 11:42:25;;;;;;;12.52;3.72;;;11.10;95.00;;;;;;5011824;28;21178;-75
2023/11/06 11:45:06;;;;;;;14.68;4.45;;;11.10;95.00;;;;;;5010180;28;21461;-74
2023/11/06 11:47:47;;;;;;;15.65;4.45;;;11.30;95.20;;;;;;5013906;28;20114;-77
2023/11/06 11:50:36;;;;;;;14.07;3.40;;;11.40;94.80;;;;;;5015934;28;20050;-76
2023/11/06 11:53:02;;;;;;;13.32;3.00;;;11.60;94.70;;;;;;5012347;28;20144;-74
2023/11/06 11:55:39;;;;;;;11.43;2.90;;;11.60;94.30;;;;;;5012760;28;20041;-75
2023/11/06 11:58:06;;;;;;;11.23;3.33;;;11.60;93.90;;;;;;5012394;28;20124;-75
2023/11/06 12:00:36;;;;;;;10.05;3.13;;;11.40;93.60;;;;;;5007876;28;20054;-75
2023/11/06 12:03:07;;;;;;;14.00;3.13;;;11.40;93.80;;;;;;5006799;28;20033;-77
2023/11/06 12:05:34;;;;;;;11.07;3.20;;;11.30;94.10;;;;;;5015423;28;20045;-76
2023/11/06 12:08:12;;;;;;;10.20;2.92;;;11.30;94.00;;;;;;5013722;28;20394;-74
2023/11/06 12:10:38;;;;;;;12.18;3.30;;;11.30;94.10;;;;;;5010559;28;20042;-74
2023/11/06 12:13:23;;;;;;;14.32;4.30;;;11.20;94.20;;;;;;5015398;28;20044;-76
2023/11/06 12:15:50;;;;;;;11.77;3.35;;;11.10;94.50;;;;;;5013099;28;20033;-74
2023/11/06 12:18:18;;;;;;;12.95;2.83;;;11.10;94.70;;;;;;5015498;28;20048;-74
2023/11/06 12:20:45;;;;;;;10.73;3.20;;;11.30;94.90;;;;;;5014069;28;20401;-76
2023/11/06 12:23:11;;;;;;;16.52;3.40;;;11.40;94.90;;;;;;5011888;28;20046;-74
2023/11/06 12:25:39;;;;;;;11.30;3.40;;;11.50;94.70;;;;;;5010576;28;20032;-77
2023/11/06 12:28:07;;;;;;;15.40;3.08;;;11.50;94.60;;;;;;5015372;28;20106;-74
2023/11/06 12:30:38;;;;;;;11.75;3.17;;;11.60;94.70;;;;;;5016020;28;20037;-75
2023/11/06 12:33:22;;;;;;;11.63;3.45;;;11.60;94.50;;;;;;5012656;28;20041;-77
2023/11/06 12:35:50;;;;;;;12.70;4.03;;;11.70;94.50;;;;;;5014146;28;20530;-75
2023/11/06 12:38:42;;;;;;;15.68;3.70;;;11.70;94.30;;;;;;5013955;28;20038;-76
2023/11/06 12:41:07;;;;;;;10.45;3.25;;;11.60;94.30;;;;;;5010403;28;20058;-75
2023/11/06 12:43:34;;;;;;;12.98;3.80;;;11.60;94.20;;;;;;5011296;28;20124;-75
2023/11/06 12:46:01;;;;;;;10.52;3.10;;;11.50;94.00;;;;;;5013865;28;20459;-75